Time;durP1;ratioP1;P1;durP2;ratioP2;P2;SDS_P1;SDS_P2;PMS_P1;PMS_P2;Temp;Humidity;BMP_temperature;BMP_pressure;BME280_temperature;BME280_humidity;BME280_pressure;Samples;Min_cycle;Max_cycle;Signal;HPM_P1;HPM_P2
2022/08/02 00:00:21;;;;;;;3.50;2.30;;;21.20;99.90;;;;;;5056371;28;20476;-56
2022/08/02 00:02:49;;;;;;;2.43;2.23;;;21.30;99.90;;;;;;5056449;28;20532;-56
2022/08/02 00:05:16;;;;;;;3.47;2.30;;;21.40;99.90;;;;;;5056335;28;20457;-56
2022/08/02 00:07:44;;;;;;;4.60;4.20;;;21.50;99.90;;;;;;5056703;28;20532;-56
2022/08/02 00:10:12;;;;;;;3.87;3.47;;;21.30;99.90;;;;;;5056709;28;20468;-56
2022/08/02 00:12:40;;;;;;;3.20;2.90;;;21.40;99.90;;;;;;5056483;28;20456;-56
2022/08/02 00:15:09;;;;;;;2.63;2.43;;;21.40;99.90;;;;;;5056430;28;20809;-56
2022/08/02 00:17:36;;;;;;;3.00;2.70;;;21.40;99.90;;;;;;5056497;28;20453;-56
2022/08/02 00:20:04;;;;;;;3.00;2.73;;;21.30;99.90;;;;;;5055945;28;20552;-56
2022/08/02 00:22:32;;;;;;;4.33;2.87;;;21.40;99.90;;;;;;5055918;28;21005;-56
2022/08/02 00:25:00;;;;;;;3.00;2.80;;;21.30;99.90;;;;;;5056396;28;20859;-56
2022/08/02 00:27:27;;;;;;;3.60;3.30;;;21.20;99.90;;;;;;5056168;28;20813;-56
2022/08/02 00:29:54;;;;;;;5.00;3.20;;;21.10;99.90;;;;;;5055734;28;20469;-56
2022/08/02 00:32:22;;;;;;;3.90;3.20;;;21.30;99.90;;;;;;5055973;28;20947;-56
2022/08/02 00:34:49;;;;;;;4.03;3.30;;;21.20;99.90;;;;;;5056010;28;20449;-56
2022/08/02 00:37:16;;;;;;;4.47;3.63;;;21.00;99.90;;;;;;5055719;28;20886;-56
2022/08/02 00:39:44;;;;;;;3.93;3.53;;;21.00;99.90;;;;;;5055842;28;20548;-56
2022/08/02 00:42:14;;;;;;;3.50;2.83;;;21.00;99.90;;;;;;5055931;28;20488;-56
2022/08/02 00:44:42;;;;;;;5.70;3.40;;;20.90;99.90;;;;;;5055551;28;20477;-56
2022/08/02 00:47:09;;;;;;;3.60;2.93;;;20.90;99.90;;;;;;5055852;28;20545;-56
2022/08/02 00:49:36;;;;;;;4.00;3.20;;;20.90;99.90;;;;;;5055871;28;20456;-55
2022/08/02 00:52:04;;;;;;;3.67;3.10;;;20.90;99.90;;;;;;5055437;28;20552;-55
2022/08/02 00:54:31;;;;;;;4.23;3.87;;;20.90;99.90;;;;;;5055604;28;20452;-56
2022/08/02 00:56:58;;;;;;;4.07;2.87;;;21.00;99.90;;;;;;5055507;28;21016;-56
2022/08/02 00:59:27;;;;;;;3.57;3.30;;;21.00;99.90;;;;;;5055267;28;20964;-56
2022/08/02 01:01:54;;;;;;;4.83;4.23;;;21.00;99.90;;;;;;5054442;28;20842;-55
2022/08/02 01:04:21;;;;;;;2.47;2.27;;;20.90;99.90;;;;;;5055650;28;20445;-56
2022/08/02 01:06:48;;;;;;;3.73;3.43;;;21.00;99.90;;;;;;5055231;28;20506;-56
2022/08/02 01:09:15;;;;;;;3.63;3.33;;;21.10;99.90;;;;;;5055338;28;20544;-56
2022/08/02 01:11:43;;;;;;;3.00;2.80;;;21.10;99.90;;;;;;5055494;28;20462;-56
2022/08/02 01:14:12;;;;;;;4.20;3.80;;;21.00;99.90;;;;;;5055372;28;20548;-56
2022/08/02 01:16:46;;;;;;;4.43;3.03;;;21.00;99.90;;;;;;5055370;28;20942;-56
2022/08/02 01:19:31;;;;;;;4.00;3.60;;;20.90;99.90;;;;;;5055160;28;20425;-56
2022/08/02 01:22:14;;;;;;;4.50;2.60;;;20.90;99.90;;;;;;5055038;28;20973;-56
2022/08/02 01:25:02;;;;;;;2.97;2.73;;;20.80;99.90;;;;;;5055426;28;20516;-56
2022/08/02 01:27:51;;;;;;;3.10;2.90;;;20.90;99.90;;;;;;5055143;28;20426;-56
2022/08/02 01:30:20;;;;;;;3.03;2.73;;;20.70;99.90;;;;;;5054734;28;20969;-56
2022/08/02 01:32:53;;;;;;;3.17;2.77;;;20.80;99.90;;;;;;5054977;28;20441;-56
2022/08/02 01:35:24;;;;;;;5.57;3.30;;;20.80;99.90;;;;;;5055143;28;20513;-55
2022/08/02 01:37:57;;;;;;;3.00;2.80;;;20.70;99.90;;;;;;5055132;28;20434;-56
2022/08/02 01:40:37;;;;;;;9.03;3.00;;;20.70;99.90;;;;;;5055090;28;20568;-56
2022/08/02 01:43:07;;;;;;;4.40;2.50;;;20.60;99.90;;;;;;5054612;28;20508;-56
2022/08/02 01:45:40;;;;;;;3.23;2.93;;;20.60;99.90;;;;;;5054610;28;20484;-56
2022/08/02 01:48:08;;;;;;;2.67;2.47;;;20.70;99.90;;;;;;5054902;28;20457;-56
2022/08/02 01:50:38;;;;;;;3.10;2.80;;;20.80;99.90;;;;;;5054300;28;20981;-56
2022/08/02 01:53:08;;;;;;;2.97;2.73;;;20.90;99.90;;;;;;5054473;28;20445;-56
2022/08/02 01:55:40;;;;;;;3.47;3.13;;;20.90;99.90;;;;;;5054819;28;20448;-56
2022/08/02 01:58:13;;;;;;;3.80;3.30;;;20.90;99.90;;;;;;5054232;28;20449;-56
2022/08/02 02:00:42;;;;;;;3.60;2.97;;;20.90;99.90;;;;;;5054192;28;20525;-56
2022/08/02 02:03:13;;;;;;;2.83;2.63;;;20.80;99.90;;;;;;5054538;28;20453;-56
2022/08/02 02:05:42;;;;;;;3.10;2.90;;;20.70;99.90;;;;;;5054503;28;20818;-56
2022/08/02 02:08:10;;;;;;;3.47;2.70;;;20.80;99.90;;;;;;5054460;28;20823;-56
2022/08/02 02:10:40;;;;;;;3.07;2.77;;;20.70;99.90;;;;;;5054198;28;20837;-56
2022/08/02 02:13:09;;;;;;;3.93;2.70;;;20.60;99.90;;;;;;5053383;28;20446;-56
2022/08/02 02:15:44;;;;;;;3.03;2.80;;;20.60;99.90;;;;;;5054203;28;20447;-56
2022/08/02 02:18:14;;;;;;;4.17;3.00;;;21.00;99.90;;;;;;5053940;28;20514;-56
2022/08/02 02:20:42;;;;;;;3.20;2.90;;;21.00;99.90;;;;;;5053775;28;20496;-56
2022/08/02 02:23:10;;;;;;;3.40;3.10;;;20.90;99.90;;;;;;5054177;28;20453;-56
2022/08/02 02:25:40;;;;;;;3.47;3.17;;;21.10;99.90;;;;;;5053747;28;20429;-56
2022/08/02 02:28:11;;;;;;;4.93;3.00;;;21.20;99.90;;;;;;5053795;28;20433;-56
2022/08/02 02:30:41;;;;;;;3.20;2.90;;;21.00;99.90;;;;;;5054024;28;20477;-56
2022/08/02 02:33:11;;;;;;;3.17;2.97;;;20.90;99.90;;;;;;5053700;28;20952;-55
2022/08/02 02:35:39;;;;;;;3.00;2.70;;;20.80;99.90;;;;;;5053584;28;20933;-56
2022/08/02 02:38:11;;;;;;;3.10;2.80;;;20.60;99.90;;;;;;5053655;28;20434;-56
2022/08/02 02:40:40;;;;;;;3.73;2.80;;;20.40;99.90;;;;;;5053744;28;20503;-56
2022/08/02 02:43:09;;;;;;;3.40;3.10;;;20.30;99.90;;;;;;5053418;28;20451;-56
2022/08/02 02:45:39;;;;;;;3.50;2.80;;;20.30;99.90;;;;;;5053178;28;20992;-56
2022/08/02 02:48:09;;;;;;;5.40;2.90;;;20.30;99.90;;;;;;5053825;28;20460;-56
2022/08/02 02:50:38;;;;;;;3.13;2.93;;;20.30;99.90;;;;;;5053263;28;20921;-56
2022/08/02 02:53:06;;;;;;;3.00;2.70;;;20.30;99.90;;;;;;5053389;28;20449;-56
2022/08/02 02:55:34;;;;;;;3.50;3.20;;;20.30;99.90;;;;;;5053414;28;20449;-56
2022/08/02 02:58:02;;;;;;;3.10;2.80;;;20.30;99.90;;;;;;5053254;28;20965;-56
2022/08/02 03:03:17;;;;;;;2.87;2.63;;;20.40;99.90;;;;;;5053259;28;20926;-56
2022/08/02 03:05:45;;;;;;;3.50;2.70;;;20.30;99.90;;;;;;5052999;28;20968;-56
2022/08/02 03:08:13;;;;;;;2.80;2.23;;;20.40;99.90;;;;;;5053134;28;20532;-56
2022/08/02 03:10:40;;;;;;;2.60;2.40;;;20.40;99.90;;;;;;5053379;28;20479;-56
2022/08/02 03:13:07;;;;;;;3.57;3.20;;;20.40;99.90;;;;;;5052926;28;21008;-56
2022/08/02 03:15:36;;;;;;;3.10;2.80;;;20.30;99.90;;;;;;5052994;28;20441;-56
2022/08/02 03:18:04;;;;;;;3.40;2.93;;;20.30;99.90;;;;;;5053180;28;20441;-56
2022/08/02 03:20:32;;;;;;;2.87;2.60;;;20.30;99.90;;;;;;5052824;28;20476;-56
2022/08/02 03:22:59;;;;;;;3.40;3.10;;;20.20;99.90;;;;;;5052872;28;21026;-56
2022/08/02 03:25:26;;;;;;;3.93;3.30;;;19.90;99.90;;;;;;5052503;28;20942;-56
2022/08/02 03:27:54;;;;;;;6.90;3.27;;;19.80;99.90;;;;;;5052821;28;20941;-56
2022/08/02 03:30:23;;;;;;;3.13;2.93;;;19.70;99.90;;;;;;5052692;28;20552;-56
2022/08/02 03:32:51;;;;;;;3.53;2.83;;;19.60;99.90;;;;;;5052804;28;20544;-56
2022/08/02 03:35:19;;;;;;;3.20;2.87;;;19.60;99.90;;;;;;5052645;28;20445;-55
2022/08/02 03:37:49;;;;;;;7.43;3.60;;;19.50;99.90;;;;;;5052879;28;20449;-56
2022/08/02 03:40:17;;;;;;;7.53;3.00;;;19.50;99.90;;;;;;5052993;28;20508;-56
2022/08/02 03:42:45;;;;;;;3.50;2.97;;;19.50;99.90;;;;;;5052469;28;20476;-56
2022/08/02 03:45:13;;;;;;;6.40;3.10;;;19.50;99.90;;;;;;5052488;28;20481;-56
2022/08/02 03:47:42;;;;;;;3.00;2.70;;;19.50;99.90;;;;;;5052961;28;20950;-55
2022/08/02 03:50:12;;;;;;;3.30;3.00;;;19.60;99.90;;;;;;5052784;28;20465;-56
2022/08/02 03:52:41;;;;;;;3.43;3.13;;;19.60;99.90;;;;;;5052692;28;20783;-56
2022/08/02 03:55:11;;;;;;;5.63;3.50;;;19.60;99.90;;;;;;5052438;28;20487;-56
2022/08/02 03:57:39;;;;;;;3.00;2.80;;;19.60;99.90;;;;;;5052553;28;20451;-56
2022/08/02 04:00:07;;;;;;;4.20;3.70;;;19.60;99.90;;;;;;5052650;28;20481;-56
2022/08/02 04:02:36;;;;;;;3.43;2.80;;;19.50;99.90;;;;;;5052649;28;20517;-56
2022/08/02 04:05:03;;;;;;;3.40;3.10;;;19.40;99.90;;;;;;5052435;28;20536;-56
2022/08/02 04:07:30;;;;;;;3.90;2.97;;;19.40;99.90;;;;;;5052377;28;21005;-56
2022/08/02 04:09:57;;;;;;;4.07;3.70;;;19.30;99.90;;;;;;5052571;28;20567;-56
2022/08/02 04:12:26;;;;;;;4.13;2.90;;;19.50;99.90;;;;;;5052444;28;20540;-56
2022/08/02 04:14:53;;;;;;;3.67;3.30;;;19.70;99.90;;;;;;5052606;28;20445;-56
2022/08/02 04:17:23;;;;;;;3.30;3.00;;;19.60;99.90;;;;;;5052594;28;20449;-56
2022/08/02 04:19:53;;;;;;;3.80;2.80;;;19.60;99.90;;;;;;5052422;28;20480;-56
2022/08/02 04:22:24;;;;;;;5.73;3.90;;;19.70;99.90;;;;;;5052568;28;20469;-56
2022/08/02 04:24:55;;;;;;;3.53;3.23;;;19.50;99.90;;;;;;5052277;28;20417;-56
2022/08/02 04:27:23;;;;;;;3.80;3.10;;;19.50;99.90;;;;;;5052237;28;20429;-56
2022/08/02 04:29:52;;;;;;;4.10;3.23;;;19.50;99.90;;;;;;5052277;28;20548;-56
2022/08/02 04:32:21;;;;;;;4.13;3.30;;;19.50;99.90;;;;;;5052747;28;20449;-56
2022/08/02 04:34:48;;;;;;;3.50;3.20;;;19.60;99.90;;;;;;5052369;28;20841;-56
2022/08/02 04:37:16;;;;;;;3.47;3.17;;;19.60;99.90;;;;;;5054349;28;20445;-56
2022/08/02 04:39:43;;;;;;;3.43;3.13;;;19.80;99.90;;;;;;5055913;28;20551;-56
2022/08/02 04:42:10;;;;;;;3.10;2.80;;;19.90;99.90;;;;;;5056037;28;20845;-56
2022/08/02 04:44:38;;;;;;;3.00;2.77;;;19.90;99.90;;;;;;5055640;28;20952;-55
2022/08/02 04:47:07;;;;;;;4.00;3.23;;;20.00;99.90;;;;;;5055812;28;20453;-55
2022/08/02 04:49:34;;;;;;;6.20;2.77;;;20.00;99.90;;;;;;5055764;28;20449;-55
2022/08/02 04:52:01;;;;;;;3.33;3.03;;;20.10;99.90;;;;;;5055422;28;20441;-55
2022/08/02 04:54:28;;;;;;;3.57;2.87;;;20.10;99.90;;;;;;5055490;28;20540;-55
2022/08/02 04:56:55;;;;;;;3.00;2.80;;;20.20;99.90;;;;;;5055758;28;20457;-55
2022/08/02 04:59:22;;;;;;;5.60;2.93;;;20.10;99.90;;;;;;5055616;28;20532;-55
2022/08/02 05:01:49;;;;;;;5.17;3.43;;;20.00;99.90;;;;;;5055673;28;20938;-55
2022/08/02 05:04:18;;;;;;;3.97;3.60;;;20.10;99.90;;;;;;5055262;28;20449;-55
2022/08/02 05:06:45;;;;;;;3.47;3.17;;;20.20;99.90;;;;;;5055168;28;20969;-56
2022/08/02 05:09:13;;;;;;;3.40;3.10;;;20.30;99.90;;;;;;5055542;28;20559;-55
2022/08/02 05:11:40;;;;;;;4.00;3.37;;;20.30;99.90;;;;;;5054837;28;20544;-55
2022/08/02 05:14:07;;;;;;;6.50;3.10;;;20.40;99.90;;;;;;5054998;28;20576;-55
2022/08/02 05:16:34;;;;;;;3.40;3.10;;;20.50;99.90;;;;;;5055429;28;20495;-56
2022/08/02 05:19:02;;;;;;;4.70;3.10;;;20.60;99.90;;;;;;5054901;28;20451;-55
2022/08/02 05:21:31;;;;;;;3.60;3.30;;;20.80;99.90;;;;;;5054966;28;20469;-55
2022/08/02 05:23:58;;;;;;;5.67;2.93;;;20.80;99.90;;;;;;5054882;28;21012;-56
2022/08/02 05:26:25;;;;;;;3.70;3.40;;;20.90;99.90;;;;;;5055247;28;20477;-56
2022/08/02 05:28:53;;;;;;;5.80;3.40;;;21.20;99.90;;;;;;5054660;28;20539;-56
2022/08/02 05:31:20;;;;;;;3.43;2.97;;;21.20;99.90;;;;;;5054664;28;20503;-56
2022/08/02 05:33:47;;;;;;;3.07;2.87;;;21.10;99.90;;;;;;5055012;28;20450;-56
2022/08/02 05:36:14;;;;;;;3.40;3.10;;;21.00;99.90;;;;;;5054887;28;20584;-56
2022/08/02 05:38:43;;;;;;;3.13;2.93;;;21.00;99.90;;;;;;5054889;28;20843;-55
2022/08/02 05:41:10;;;;;;;3.57;3.27;;;21.00;99.90;;;;;;5054433;28;20520;-56
2022/08/02 05:43:37;;;;;;;3.70;3.33;;;21.10;99.90;;;;;;5054189;28;20493;-56
2022/08/02 05:46:04;;;;;;;3.80;3.50;;;21.10;99.90;;;;;;5054343;28;20516;-56
2022/08/02 05:48:31;;;;;;;4.77;3.10;;;21.10;99.90;;;;;;5054524;28;20537;-56
2022/08/02 05:51:04;;;;;;;4.97;3.37;;;21.20;99.90;;;;;;5054627;28;20552;-56
2022/08/02 05:53:38;;;;;;;5.47;3.90;;;21.30;99.90;;;;;;5054170;28;20508;-56
2022/08/02 05:56:16;;;;;;;6.77;3.53;;;21.40;99.90;;;;;;5054421;28;20433;-56
2022/08/02 05:58:50;;;;;;;3.47;3.17;;;21.40;99.90;;;;;;5054289;28;20433;-55
2022/08/02 06:01:23;;;;;;;3.60;3.30;;;21.50;99.90;;;;;;5054442;28;20479;-55
2022/08/02 06:03:52;;;;;;;3.73;3.43;;;21.60;99.90;;;;;;5053955;28;20527;-56
2022/08/02 06:06:23;;;;;;;5.77;3.50;;;21.70;99.90;;;;;;5054451;28;20849;-56
2022/08/02 06:08:54;;;;;;;5.07;3.10;;;21.80;99.90;;;;;;5054327;28;20464;-56
2022/08/02 06:11:24;;;;;;;3.90;3.50;;;21.70;99.90;;;;;;5054443;28;20469;-56
2022/08/02 06:13:53;;;;;;;3.87;3.50;;;21.70;99.90;;;;;;5053751;28;20480;-56
2022/08/02 06:16:20;;;;;;;3.50;3.20;;;21.80;99.90;;;;;;5053747;28;20449;-56
2022/08/02 06:18:48;;;;;;;2.93;2.73;;;21.70;99.90;;;;;;5054334;28;20485;-56
2022/08/02 06:21:15;;;;;;;3.63;3.33;;;21.60;99.90;;;;;;5053646;28;20560;-56
2022/08/02 06:23:44;;;;;;;4.60;3.40;;;21.60;99.90;;;;;;5053438;28;20488;-56
2022/08/02 06:26:13;;;;;;;3.80;3.50;;;21.60;99.90;;;;;;5054257;28;20460;-57
2022/08/02 06:28:42;;;;;;;3.63;3.10;;;22.00;99.90;;;;;;5053963;28;20537;-57
2022/08/02 06:31:10;;;;;;;5.90;3.80;;;22.10;99.90;;;;;;5053603;28;20508;-56
2022/08/02 06:33:38;;;;;;;7.07;3.90;;;22.10;99.90;;;;;;5053930;28;20484;-56
2022/08/02 06:36:14;;;;;;;3.33;3.03;;;22.20;99.90;;;;;;5053801;28;20481;-56
2022/08/02 06:38:43;;;;;;;5.40;3.30;;;22.10;99.90;;;;;;5053429;28;20429;-57
2022/08/02 06:41:13;;;;;;;4.47;3.50;;;22.20;99.90;;;;;;5053632;28;20835;-56
2022/08/02 06:43:49;;;;;;;4.13;3.60;;;22.30;99.90;;;;;;5053299;28;21368;-56
2022/08/02 06:46:21;;;;;;;5.53;3.43;;;22.30;99.90;;;;;;5053792;28;20521;-56
2022/08/02 06:48:49;;;;;;;5.60;3.50;;;22.20;99.90;;;;;;5053404;28;20540;-56
2022/08/02 06:51:16;;;;;;;4.10;3.80;;;22.30;99.90;;;;;;5053315;28;20544;-56
2022/08/02 06:53:44;;;;;;;4.00;3.70;;;22.40;99.90;;;;;;5053349;28;20441;-56
2022/08/02 06:56:11;;;;;;;3.87;3.47;;;22.50;99.90;;;;;;5053033;28;20536;-56
2022/08/02 06:58:39;;;;;;;5.60;4.10;;;22.50;99.90;;;;;;5052393;28;20906;-56
2022/08/02 07:01:08;;;;;;;3.57;3.33;;;22.60;99.90;;;;;;5052630;28;20505;-56
2022/08/02 07:03:36;;;;;;;4.00;3.53;;;22.60;99.90;;;;;;5052615;28;21012;-56
2022/08/02 07:06:04;;;;;;;6.00;4.00;;;22.80;99.90;;;;;;5052785;28;20449;-56
2022/08/02 07:08:31;;;;;;;6.50;5.10;;;22.80;99.90;;;;;;5052698;28;20949;-56
2022/08/02 07:10:59;;;;;;;4.63;4.27;;;22.60;99.90;;;;;;5052765;28;20484;-56
2022/08/02 07:13:27;;;;;;;5.50;4.40;;;22.70;99.90;;;;;;5052937;28;20898;-57
2022/08/02 07:15:54;;;;;;;3.87;3.57;;;22.70;99.90;;;;;;5053092;28;20453;-57
2022/08/02 07:18:23;;;;;;;6.50;3.80;;;22.70;99.90;;;;;;5053235;28;20799;-59
2022/08/02 07:20:51;;;;;;;6.00;4.20;;;22.80;99.90;;;;;;5052744;28;20465;-57
2022/08/02 07:23:18;;;;;;;8.40;4.90;;;22.90;99.90;;;;;;5052690;28;20504;-56
2022/08/02 07:25:47;;;;;;;5.17;4.77;;;23.00;99.90;;;;;;5052516;28;20446;-56
2022/08/02 07:28:15;;;;;;;5.23;4.30;;;23.00;99.90;;;;;;5052545;28;20455;-56
2022/08/02 07:30:43;;;;;;;3.80;3.50;;;23.00;99.90;;;;;;5052398;28;20969;-57
2022/08/02 07:33:10;;;;;;;3.30;3.07;;;23.10;99.90;;;;;;5052772;28;20503;-55
2022/08/02 07:35:39;;;;;;;4.30;3.90;;;23.30;99.90;;;;;;5052354;28;20463;-57
2022/08/02 07:38:07;;;;;;;5.80;4.83;;;23.60;99.90;;;;;;5051994;28;20572;-55
2022/08/02 07:40:34;;;;;;;5.03;4.53;;;23.60;99.90;;;;;;5052418;28;20473;-55
2022/08/02 07:43:02;;;;;;;4.07;3.70;;;23.70;99.90;;;;;;5052203;28;20511;-55
2022/08/02 07:45:29;;;;;;;3.80;3.50;;;23.90;99.90;;;;;;5051981;28;20616;-56
2022/08/02 07:47:57;;;;;;;4.20;3.70;;;24.20;99.90;;;;;;5052249;28;20444;-56
2022/08/02 07:50:24;;;;;;;4.60;3.87;;;24.80;99.90;;;;;;5052336;28;21028;-56
2022/08/02 07:52:53;;;;;;;4.70;4.30;;;25.10;99.90;;;;;;5052127;28;20540;-55
2022/08/02 07:55:20;;;;;;;3.97;3.40;;;25.70;99.90;;;;;;5052176;28;20540;-55
2022/08/02 07:57:48;;;;;;;4.73;4.33;;;26.00;99.90;;;;;;5052157;28;20571;-56
2022/08/02 08:00:17;;;;;;;3.77;3.47;;;26.20;99.90;;;;;;5052004;28;20651;-56
2022/08/02 08:02:45;;;;;;;3.93;3.57;;;27.10;99.90;;;;;;5051685;28;20492;-56
2022/08/02 08:05:12;;;;;;;5.73;3.20;;;27.70;99.90;;;;;;5052139;28;20488;-56
2022/08/02 08:07:40;;;;;;;4.40;4.00;;;27.90;99.90;;;;;;5052174;28;20590;-57
2022/08/02 08:10:09;;;;;;;5.97;3.80;;;28.00;99.90;;;;;;5052610;28;20473;-57
2022/08/02 08:12:37;;;;;;;4.37;4.00;;;28.20;99.90;;;;;;5056296;28;20966;-56
2022/08/02 08:15:05;;;;;;;4.10;3.80;;;28.00;99.90;;;;;;5055907;28;20987;-57
2022/08/02 08:17:33;;;;;;;4.00;3.70;;;28.20;99.90;;;;;;5056034;28;20445;-56
2022/08/02 08:20:02;;;;;;;4.03;3.13;;;28.30;99.90;;;;;;5055866;28;20466;-56
2022/08/02 08:22:29;;;;;;;4.80;4.40;;;28.70;99.20;;;;;;5056321;28;20480;-57
2022/08/02 08:24:56;;;;;;;3.40;3.10;;;28.90;97.90;;;;;;5055976;28;20457;-57
2022/08/02 08:27:24;;;;;;;4.40;3.90;;;29.10;97.70;;;;;;5055693;28;20451;-57
2022/08/02 08:29:52;;;;;;;6.63;3.63;;;28.90;97.90;;;;;;5056095;28;20461;-57
2022/08/02 08:32:19;;;;;;;4.40;4.00;;;28.90;97.30;;;;;;5055668;28;20933;-57
2022/08/02 08:34:47;;;;;;;4.93;4.43;;;29.40;97.20;;;;;;5055377;28;20441;-56
2022/08/02 08:37:14;;;;;;;4.03;3.73;;;29.50;96.30;;;;;;5055927;28;20954;-56
2022/08/02 08:39:41;;;;;;;7.60;3.80;;;29.70;95.90;;;;;;5055529;28;20489;-57
2022/08/02 08:42:09;;;;;;;4.60;3.73;;;30.20;95.70;;;;;;5055627;28;20460;-56
2022/08/02 08:44:38;;;;;;;4.47;4.07;;;30.20;94.50;;;;;;5055170;28;20539;-56
2022/08/02 08:47:06;;;;;;;5.10;4.53;;;29.70;94.80;;;;;;5055676;28;20488;-56
2022/08/02 08:49:37;;;;;;;5.70;4.40;;;30.00;94.30;;;;;;5055669;28;20528;-56
2022/08/02 08:52:06;;;;;;;3.97;3.67;;;30.40;93.40;;;;;;5055767;28;20433;-56
2022/08/02 08:54:35;;;;;;;4.63;3.77;;;31.30;92.70;;;;;;5055187;28;20441;-56
2022/08/02 08:57:05;;;;;;;3.73;3.30;;;31.50;91.20;;;;;;5055266;28;20449;-56
2022/08/02 08:59:32;;;;;;;5.03;4.53;;;31.10;91.30;;;;;;5055440;28;20533;-56
2022/08/02 09:02:02;;;;;;;7.40;4.20;;;30.50;91.70;;;;;;5055274;28;20453;-56
2022/08/02 09:04:30;;;;;;;6.67;4.60;;;29.90;92.20;;;;;;5054859;28;20568;-56
2022/08/02 09:06:57;;;;;;;4.57;4.17;;;29.60;91.70;;;;;;5055013;28;20500;-58
2022/08/02 09:09:25;;;;;;;4.43;4.03;;;29.90;91.90;;;;;;5055296;28;20463;-57
2022/08/02 09:11:52;;;;;;;6.20;4.30;;;29.80;91.50;;;;;;5055243;28;20470;-57
2022/08/02 09:14:31;;;;;;;5.17;4.47;;;29.50;91.90;;;;;;5055069;28;20446;-57
2022/08/02 09:17:11;;;;;;;4.70;4.20;;;30.20;91.60;;;;;;5054613;28;20448;-57
2022/08/02 09:19:39;;;;;;;3.90;3.60;;;29.40;91.70;;;;;;5055216;28;20436;-57
2022/08/02 09:22:08;;;;;;;6.20;5.03;;;28.70;92.80;;;;;;5054221;28;20536;-57
2022/08/02 09:24:45;;;;;;;4.50;4.10;;;;;;;;;;5054549;28;20571;-58
2022/08/02 09:27:15;;;;;;;5.23;4.87;;;27.70;93.80;;;;;;5054629;28;20913;-57
2022/08/02 09:29:46;;;;;;;5.40;5.00;;;28.00;94.00;;;;;;5054606;28;20494;-57
2022/08/02 09:32:17;;;;;;;5.40;4.90;;;27.70;94.20;;;;;;5054776;28;20438;-57
2022/08/02 09:34:46;;;;;;;5.30;4.80;;;27.90;94.60;;;;;;5054457;28;20429;-57
2022/08/02 09:37:23;;;;;;;5.87;4.80;;;27.90;94.20;;;;;;5054669;28;20484;-57
2022/08/02 09:39:50;;;;;;;5.00;4.70;;;27.60;94.40;;;;;;5054398;28;20477;-57
2022/08/02 09:42:17;;;;;;;5.67;5.03;;;27.50;95.10;;;;;;5054734;28;20452;-57
2022/08/02 09:44:55;;;;;;;5.30;4.90;;;27.30;94.90;;;;;;5054144;28;21186;-56
2022/08/02 09:47:24;;;;;;;11.73;5.27;;;27.20;95.20;;;;;;5054400;28;20429;-56
2022/08/02 09:49:53;;;;;;;6.93;5.37;;;26.90;94.90;;;;;;5054529;28;20480;-56
2022/08/02 09:52:27;;;;;;;5.20;4.80;;;27.20;95.00;;;;;;5054292;28;20453;-56
2022/08/02 09:54:54;;;;;;;5.53;5.07;;;27.60;94.60;;;;;;5054329;28;20426;-56
2022/08/02 09:57:27;;;;;;;5.20;4.80;;;27.60;94.80;;;;;;5054198;28;20453;-56
2022/08/02 09:59:56;;;;;;;5.50;5.00;;;27.80;94.50;;;;;;5054117;28;21035;-56
2022/08/02 10:02:26;;;;;;;5.20;4.70;;;28.50;94.80;;;;;;5054239;28;20595;-56
2022/08/02 10:04:53;;;;;;;4.70;3.80;;;29.50;92.40;;;;;;5054100;28;20483;-56
2022/08/02 10:07:21;;;;;;;4.90;4.50;;;30.10;91.60;;;;;;5053912;28;20484;-56
2022/08/02 10:09:49;;;;;;;4.37;4.03;;;30.30;91.40;;;;;;5054464;28;20588;-56
2022/08/02 10:12:17;;;;;;;5.87;4.87;;;31.00;90.50;;;;;;5053705;28;20540;-56
2022/08/02 10:14:45;;;;;;;7.20;4.60;;;31.80;88.70;;;;;;5053941;28;20800;-56
2022/08/02 10:17:13;;;;;;;4.77;4.43;;;31.80;86.70;;;;;;5054106;28;20445;-57
2022/08/02 10:19:42;;;;;;;5.73;4.47;;;32.10;86.00;;;;;;5053895;28;20453;-56
2022/08/02 10:22:11;;;;;;;5.43;4.93;;;32.70;83.40;;;;;;5053647;28;20971;-56
2022/08/02 10:24:39;;;;;;;8.27;4.90;;;32.10;82.20;;;;;;5053471;28;20483;-56
2022/08/02 10:27:13;;;;;;;7.53;4.37;;;32.20;82.40;;;;;;5054009;28;20449;-56
2022/08/02 10:29:42;;;;;;;5.10;4.70;;;32.20;81.00;;;;;;5053704;28;20966;-57
2022/08/02 10:32:13;;;;;;;4.63;4.20;;;31.30;82.30;;;;;;5053576;28;20457;-56
2022/08/02 10:34:48;;;;;;;4.40;3.93;;;31.50;83.70;;;;;;5052346;28;20430;-56
2022/08/02 10:37:17;;;;;;;5.40;4.90;;;31.40;83.20;;;;;;5053696;28;20893;-56
2022/08/02 10:39:46;;;;;;;5.10;4.70;;;30.70;84.30;;;;;;5053497;28;20464;-56
2022/08/02 10:42:46;;;;;;;5.00;4.50;;;30.60;85.10;;;;;;5053342;28;20445;-57
2022/08/02 10:45:16;;;;;;;5.47;3.93;;;30.80;83.30;;;;;;5053042;28;20489;-57
2022/08/02 10:47:58;;;;;;;4.67;4.33;;;30.50;84.80;;;;;;5053216;28;20938;-56
2022/08/02 10:50:56;;;;;;;5.23;4.80;;;30.20;85.50;;;;;;5052719;28;20509;-56
2022/08/02 10:53:28;;;;;;;5.07;4.60;;;29.60;86.60;;;;;;5053166;28;20528;-56
2022/08/02 10:55:58;;;;;;;7.80;6.13;;;29.20;87.40;;;;;;5052714;28;20539;-56
2022/08/02 10:58:28;;;;;;;5.00;4.50;;;28.90;88.00;;;;;;5053206;28;20441;-56
2022/08/02 11:00:57;;;;;;;5.67;4.70;;;28.70;88.60;;;;;;5053231;28;20516;-56
2022/08/02 11:03:39;;;;;;;4.83;4.30;;;28.30;89.50;;;;;;5052761;28;20485;-56
2022/08/02 11:06:09;;;;;;;5.60;4.80;;;28.10;90.10;;;;;;5053155;28;20524;-57
2022/08/02 11:08:37;;;;;;;6.27;5.43;;;27.90;90.50;;;;;;5052585;28;20430;-56
2022/08/02 11:11:17;;;;;;;4.83;4.43;;;27.80;90.70;;;;;;5053208;28;20483;-56
2022/08/02 11:14:01;;;;;;;5.20;4.70;;;27.90;90.80;;;;;;5052843;28;20765;-56
2022/08/02 11:17:04;;;;;;;4.63;4.13;;;29.30;88.50;;;;;;5052727;28;20937;-56
2022/08/02 11:19:32;;;;;;;4.37;3.97;;;30.60;87.20;;;;;;5052446;28;20933;-56
2022/08/02 11:22:06;;;;;;;5.93;5.43;;;31.20;81.70;;;;;;5052733;28;20445;-56
2022/08/02 11:24:34;;;;;;;4.67;4.20;;;31.50;79.50;;;;;;5052839;28;20476;-56
2022/08/02 11:27:03;;;;;;;6.40;4.33;;;31.50;79.30;;;;;;5052737;28;20453;-56
2022/08/02 11:29:35;;;;;;;4.40;4.00;;;31.00;80.30;;;;;;5052415;28;20452;-56
2022/08/02 11:32:02;;;;;;;5.77;4.37;;;31.70;78.90;;;;;;5052798;28;20524;-57
2022/08/02 11:34:32;;;;;;;5.47;4.80;;;31.50;78.90;;;;;;5052621;28;20441;-57
2022/08/02 11:37:00;;;;;;;4.53;3.80;;;31.00;79.70;;;;;;5052536;28;20499;-56
2022/08/02 11:39:29;;;;;;;4.03;3.73;;;31.20;78.60;;;;;;5052733;28;20456;-56
2022/08/02 11:41:58;;;;;;;4.93;3.77;;;31.70;77.90;;;;;;5052503;28;20457;-57
2022/08/02 11:44:25;;;;;;;4.60;3.80;;;31.90;75.10;;;;;;5052213;28;21012;-57
2022/08/02 11:46:57;;;;;;;5.03;4.10;;;32.20;76.60;;;;;;5059064;28;20448;-56
2022/08/02 11:49:25;;;;;;;4.57;3.87;;;32.80;73.00;;;;;;5059072;28;20452;-57
2022/08/02 11:52:05;;;;;;;5.23;4.00;;;32.90;74.30;;;;;;5059306;28;21018;-56
2022/08/02 11:54:35;;;;;;;5.20;4.80;;;33.00;73.30;;;;;;5058893;28;20885;-57
2022/08/02 11:57:13;;;;;;;3.97;3.67;;;32.50;72.30;;;;;;5059724;28;20437;-57
2022/08/02 11:59:41;;;;;;;6.83;3.80;;;33.10;71.90;;;;;;5059294;28;20444;-57
2022/08/02 12:02:09;;;;;;;4.47;4.17;;;32.80;71.50;;;;;;5059291;28;20445;-57
2022/08/02 12:04:37;;;;;;;4.50;4.10;;;32.80;70.20;;;;;;5058820;28;20485;-57
2022/08/02 12:07:05;;;;;;;4.33;4.03;;;32.80;70.20;;;;;;5058867;28;20449;-57
2022/08/02 12:09:35;;;;;;;4.53;4.10;;;32.80;70.20;;;;;;5059091;28;20492;-57
2022/08/02 12:12:04;;;;;;;9.60;4.80;;;33.20;70.60;;;;;;5058872;28;20811;-57
2022/08/02 12:14:32;;;;;;;4.90;4.20;;;33.30;69.50;;;;;;5058807;28;20484;-57
2022/08/02 12:19:44;;;;;;;4.77;4.47;;;32.90;68.60;;;;;;5058907;28;20487;-56
2022/08/02 12:22:17;;;;;;;4.23;3.93;;;31.60;70.40;;;;;;5058678;28;20452;-57
2022/08/02 12:24:48;;;;;;;3.83;3.53;;;31.10;71.70;;;;;;5058592;28;20471;-56
2022/08/02 12:27:32;;;;;;;4.10;3.67;;;30.80;72.80;;;;;;5059074;28;21009;-57
2022/08/02 12:30:05;;;;;;;4.47;3.87;;;30.90;71.60;;;;;;5058739;28;20473;-56
2022/08/02 12:32:33;;;;;;;5.20;4.70;;;30.80;72.50;;;;;;5058588;28;20429;-57
2022/08/02 12:35:07;;;;;;;4.07;3.77;;;30.60;70.70;;;;;;5058724;28;20447;-56
2022/08/02 12:37:34;;;;;;;5.17;4.77;;;30.40;71.80;;;;;;5058819;28;20429;-56
2022/08/02 12:40:22;;;;;;;5.10;4.60;;;31.20;72.70;;;;;;5059001;28;20508;-56
2022/08/02 12:42:53;;;;;;;5.17;3.70;;;31.20;69.30;;;;;;5058958;28;20452;-56
2022/08/02 12:45:20;;;;;;;4.57;3.90;;;31.60;70.30;;;;;;5058409;28;20492;-56
2022/08/02 12:47:48;;;;;;;3.80;3.47;;;;;;;;;;5058613;28;20455;-56
2022/08/02 12:50:19;;;;;;;4.33;3.97;;;32.70;66.90;;;;;;5058764;28;21045;-56
2022/08/02 12:52:47;;;;;;;3.73;3.43;;;32.70;66.80;;;;;;5058541;28;20433;-56
2022/08/02 12:55:19;;;;;;;5.00;4.57;;;32.80;66.40;;;;;;5058113;28;20536;-56
2022/08/02 12:57:59;;;;;;;6.03;4.50;;;32.60;67.00;;;;;;5055505;28;20502;-56
2022/08/02 13:00:29;;;;;;;4.93;4.53;;;32.40;67.10;;;;;;5055221;28;20559;-56
2022/08/02 13:02:56;;;;;;;6.33;3.83;;;32.60;67.70;;;;;;5055128;28;20445;-57
2022/08/02 13:05:24;;;;;;;4.73;4.23;;;32.70;67.70;;;;;;5055243;28;20476;-57